createdAt,value
2023-01-11T00:00:27.036Z,6.70
2023-01-11T00:01:31.224Z,6.65
2023-01-11T00:02:34.359Z,6.46
2023-01-11T00:03:37.084Z,6.64
2023-01-11T00:04:38.651Z,6.74
2023-01-11T00:05:42.030Z,6.41
2023-01-11T00:06:43.953Z,6.61
2023-01-11T00:07:46.411Z,6.56
2023-01-11T00:08:47.906Z,6.39
2023-01-11T00:09:50.392Z,6.38
2023-01-11T00:10:51.918Z,6.33
2023-01-11T00:11:55.112Z,6.45
2023-01-11T00:12:57.948Z,6.50
2023-01-11T00:14:00.432Z,6.62
2023-01-11T00:15:01.954Z,6.50
2023-01-11T00:16:08.009Z,6.39
2023-01-11T00:17:09.565Z,6.56
2023-01-11T00:18:12.119Z,6.49
2023-01-11T00:19:13.765Z,6.50
2023-01-11T00:20:17.621Z,6.37
2023-01-11T00:21:19.232Z,6.42
2023-01-11T00:22:22.194Z,6.30
2023-01-11T00:23:23.777Z,6.37
2023-01-11T00:24:26.174Z,6.39
2023-01-11T00:25:27.909Z,6.11
2023-01-11T00:26:30.372Z,6.26
2023-01-11T00:27:32.024Z,6.25
2023-01-11T00:28:35.873Z,6.40
2023-01-11T00:29:37.383Z,6.48
2023-01-11T00:30:39.811Z,6.13
2023-01-11T00:31:41.324Z,6.12
2023-01-11T00:32:43.921Z,5.93
2023-01-11T00:33:46.377Z,6.07
2023-01-11T00:34:47.854Z,6.16
2023-01-11T00:35:52.407Z,6.02
2023-01-11T00:36:53.883Z,5.98
2023-01-11T00:37:56.400Z,6.03
2023-01-11T00:38:57.837Z,5.80
2023-01-11T00:40:00.275Z,5.78
2023-01-11T00:41:21.875Z,5.80
2023-01-11T00:42:42.157Z,5.70
2023-01-11T00:44:03.867Z,5.73
2023-01-11T00:45:25.244Z,5.84
2023-01-11T00:46:56.490Z,5.71
2023-01-11T00:48:00.421Z,5.68
2023-01-11T00:49:01.936Z,5.61
2023-01-11T00:50:04.701Z,5.64
2023-01-11T00:51:06.188Z,5.57
2023-01-11T00:52:09.962Z,5.57
2023-01-11T00:53:11.671Z,5.61
2023-01-11T00:54:14.338Z,5.68
2023-01-11T00:55:15.921Z,5.65
2023-01-11T00:56:18.361Z,5.63
2023-01-11T00:57:20.137Z,5.63
2023-01-11T00:58:22.753Z,5.63
2023-01-11T00:59:25.596Z,5.74
2023-01-11T01:00:29.566Z,5.66
2023-01-11T01:01:31.657Z,5.43
2023-01-11T01:02:34.408Z,5.24
2023-01-11T01:03:36.846Z,5.44
2023-01-11T01:04:39.348Z,5.37
2023-01-11T01:05:41.811Z,5.39
2023-01-11T01:06:43.417Z,5.45
2023-01-11T01:07:46.325Z,5.49
2023-01-11T01:08:47.821Z,5.45
2023-01-11T01:09:50.275Z,5.59
2023-01-11T01:10:52.234Z,5.83
2023-01-11T01:11:54.719Z,5.98
2023-01-11T01:13:14.869Z,5.70
2023-01-11T01:14:34.405Z,5.74
2023-01-11T01:15:38.204Z,5.66
2023-01-11T01:16:40.021Z,5.79
2023-01-11T01:17:42.448Z,5.98
2023-01-11T01:18:44.906Z,5.93
2023-01-11T01:19:46.685Z,5.85
2023-01-11T01:20:51.098Z,5.74
2023-01-11T01:21:52.573Z,5.79
2023-01-11T01:22:55.037Z,5.84
2023-01-11T01:23:57.221Z,5.68
2023-01-11T01:24:59.670Z,5.89
2023-01-11T01:26:02.967Z,5.85
2023-01-11T01:27:05.421Z,5.69
2023-01-11T01:28:06.933Z,5.67
2023-01-11T01:29:09.756Z,5.67
2023-01-11T01:30:11.796Z,5.77
2023-01-11T01:31:15.546Z,6.01
2023-01-11T01:32:17.079Z,5.89
2023-01-11T01:33:19.494Z,5.92
2023-01-11T01:34:20.951Z,6.00
2023-01-11T01:35:23.392Z,6.09
2023-01-11T01:36:25.039Z,6.06
2023-01-11T01:37:27.791Z,5.93
2023-01-11T01:38:29.338Z,5.73
2023-01-11T01:39:31.884Z,5.64
2023-01-11T01:40:33.398Z,5.71
2023-01-11T01:41:36.524Z,5.74
2023-01-11T01:42:38.048Z,5.68
2023-01-11T01:43:50.289Z,5.75
2023-01-11T01:45:00.905Z,5.76
2023-01-11T01:46:03.408Z,5.60
2023-01-11T01:47:06.248Z,5.61
2023-01-11T01:48:12.293Z,5.70
2023-01-11T01:49:16.251Z,5.81
2023-01-11T01:50:22.415Z,5.86
2023-01-11T01:51:28.474Z,5.96
2023-01-11T01:52:33.045Z,6.02
2023-01-11T01:53:37.379Z,6.16
2023-01-11T01:54:43.536Z,6.21
2023-01-11T01:55:49.877Z,6.32
2023-01-11T01:56:54.669Z,6.03
2023-01-11T01:57:59.203Z,5.91
2023-01-11T01:59:04.563Z,5.85
2023-01-11T02:00:09.722Z,5.95
2023-01-11T02:01:31.955Z,5.78
2023-01-11T02:02:37.064Z,5.89
2023-01-11T02:03:38.672Z,5.97
2023-01-11T02:04:43.598Z,6.09
2023-01-11T02:05:45.865Z,6.16
2023-01-11T02:06:49.043Z,6.20
2023-01-11T02:07:54.760Z,6.33
2023-01-11T02:09:02.413Z,6.40
2023-01-11T02:10:07.922Z,6.36
2023-01-11T02:11:27.085Z,6.30
2023-01-11T02:12:33.705Z,6.32
2023-01-11T02:13:45.948Z,6.24
2023-01-11T02:14:50.018Z,6.02
2023-01-11T02:16:07.548Z,5.76
2023-01-11T02:17:10.491Z,5.85
2023-01-11T02:18:14.294Z,5.90
2023-01-11T02:19:30.137Z,5.78
2023-01-11T02:20:53.792Z,5.89
2023-01-11T02:22:17.072Z,5.81
2023-01-11T02:23:58.011Z,5.85
2023-01-11T02:25:31.699Z,5.89
2023-01-11T02:26:59.045Z,5.93
2023-01-11T02:28:11.618Z,5.85
2023-01-11T02:29:26.678Z,5.96
2023-01-11T02:30:34.352Z,5.90
2023-01-11T02:31:44.869Z,5.81
2023-01-11T02:32:58.361Z,6.02
2023-01-11T02:34:11.717Z,6.18
2023-01-11T02:35:20.370Z,6.22
2023-01-11T02:36:34.305Z,6.15
2023-01-11T02:37:47.241Z,6.18
2023-01-11T02:38:58.003Z,6.15
2023-01-11T02:40:07.067Z,6.16
2023-01-11T02:41:18.793Z,6.19
2023-01-11T02:42:45.208Z,6.28
2023-01-11T02:44:14.069Z,6.16
2023-01-11T02:45:26.888Z,6.13
2023-01-11T02:46:33.452Z,6.25
2023-01-11T02:47:44.951Z,6.39
2023-01-11T02:48:55.594Z,6.34
2023-01-11T02:50:04.217Z,6.28
2023-01-11T02:51:12.181Z,6.22
2023-01-11T02:52:21.842Z,6.47
2023-01-11T02:53:28.512Z,6.57
2023-01-11T02:54:32.720Z,6.66
2023-01-11T02:55:43.238Z,6.58
2023-01-11T02:56:48.526Z,6.61
2023-01-11T02:57:53.034Z,6.76
2023-01-11T02:58:58.774Z,6.87
2023-01-11T03:00:02.167Z,6.90
2023-01-11T03:01:05.223Z,6.78
2023-01-11T03:02:06.740Z,6.81
2023-01-11T03:03:14.492Z,6.71
2023-01-11T03:04:23.252Z,6.80
2023-01-11T03:05:26.015Z,6.76
2023-01-11T03:06:31.994Z,6.81
2023-01-11T03:07:50.903Z,6.84
2023-01-11T03:09:15.856Z,6.69
2023-01-11T03:10:29.624Z,6.78
2023-01-11T03:12:03.653Z,7.00
2023-01-11T03:13:17.166Z,6.93
2023-01-11T03:14:28.212Z,6.89
2023-01-11T03:15:46.418Z,6.79
2023-01-11T03:16:55.483Z,6.72
2023-01-11T03:18:08.389Z,6.87
2023-01-11T03:19:19.781Z,6.98
2023-01-11T03:20:27.236Z,7.12
2023-01-11T03:21:42.811Z,7.42
2023-01-11T03:22:58.204Z,7.15
2023-01-11T03:24:10.401Z,6.92
2023-01-11T03:25:20.237Z,7.00
2023-01-11T03:26:31.267Z,7.13
2023-01-11T03:27:39.809Z,7.01
2023-01-11T03:28:51.439Z,7.06
2023-01-11T03:30:04.457Z,6.86
2023-01-11T03:31:13.446Z,6.77
2023-01-11T03:32:23.396Z,7.01
2023-01-11T03:33:32.006Z,6.75
2023-01-11T03:34:40.234Z,6.75
2023-01-11T03:35:48.635Z,6.93
2023-01-11T03:36:57.576Z,6.93
2023-01-11T03:38:03.499Z,6.85
2023-01-11T03:39:11.176Z,6.99
2023-01-11T03:40:19.005Z,6.83
2023-01-11T03:41:25.431Z,6.77
2023-01-11T03:42:29.900Z,6.81
2023-01-11T03:43:34.281Z,6.60
2023-01-11T03:44:43.655Z,6.64
2023-01-11T03:45:51.016Z,6.75
2023-01-11T03:46:57.392Z,6.91
2023-01-11T03:48:03.091Z,7.04
2023-01-11T03:49:09.783Z,6.76
2023-01-11T03:50:13.537Z,6.76
2023-01-11T03:51:21.012Z,6.84
2023-01-11T03:52:28.757Z,6.70
2023-01-11T03:53:36.280Z,6.71
2023-01-11T03:54:39.967Z,6.36
2023-01-11T03:55:47.636Z,6.49
2023-01-11T03:56:56.251Z,6.50
2023-01-11T03:57:59.153Z,6.31
2023-01-11T03:59:01.593Z,6.20
2023-01-11T04:00:05.932Z,6.32
2023-01-11T04:01:08.954Z,6.39
2023-01-11T04:02:16.843Z,6.60
2023-01-11T04:03:18.347Z,6.54
2023-01-11T04:04:21.066Z,6.53
2023-01-11T04:05:22.791Z,6.39
2023-01-11T04:06:25.854Z,6.32
2023-01-11T04:07:27.391Z,6.41
2023-01-11T04:08:31.072Z,6.55
2023-01-11T04:09:32.715Z,6.79
2023-01-11T04:10:35.144Z,6.90
2023-01-11T04:11:36.635Z,6.90
2023-01-11T04:12:39.080Z,6.87
2023-01-11T04:13:40.547Z,6.68
2023-01-11T04:14:43.057Z,6.79
2023-01-11T04:15:44.538Z,6.69
2023-01-11T04:16:48.408Z,6.64
2023-01-11T04:17:49.951Z,6.59
2023-01-11T04:18:52.370Z,6.45
2023-01-11T04:19:53.856Z,6.54
2023-01-11T04:20:56.277Z,6.38
2023-01-11T04:21:57.777Z,6.40
2023-01-11T04:23:00.344Z,6.38
2023-01-11T04:24:01.907Z,6.53
2023-01-11T04:25:05.041Z,6.66
2023-01-11T04:26:07.006Z,6.57
2023-01-11T04:27:09.420Z,6.52
2023-01-11T04:28:11.127Z,6.58
2023-01-11T04:29:13.877Z,6.71
2023-01-11T04:30:15.881Z,6.75
2023-01-11T04:31:18.506Z,6.73
2023-01-11T04:32:21.413Z,6.64
2023-01-11T04:33:23.860Z,6.54
2023-01-11T04:34:25.433Z,6.58
2023-01-11T04:35:28.006Z,6.62
2023-01-11T04:36:31.470Z,6.67
2023-01-11T04:37:33.051Z,6.83
2023-01-11T04:38:35.858Z,6.64
2023-01-11T04:39:37.446Z,6.65
2023-01-11T04:40:39.891Z,6.75
2023-01-11T04:42:08.693Z,6.90
2023-01-11T04:43:10.195Z,6.88
2023-01-11T04:44:12.736Z,6.84
2023-01-11T04:45:14.476Z,6.73
2023-01-11T04:46:16.935Z,6.75
2023-01-11T04:47:20.097Z,6.47
2023-01-11T04:48:23.870Z,6.71
2023-01-11T04:49:25.367Z,6.70
2023-01-11T04:50:28.710Z,6.64
2023-01-11T04:51:30.245Z,6.61
2023-01-11T04:52:32.714Z,6.52
2023-01-11T04:53:35.083Z,6.52
2023-01-11T04:54:37.501Z,6.47
2023-01-11T04:55:38.973Z,6.50
2023-01-11T04:56:41.409Z,6.67
2023-01-11T04:57:43.550Z,6.61
2023-01-11T04:58:46.875Z,6.76
2023-01-11T04:59:49.257Z,6.60
2023-01-11T05:00:51.779Z,6.74
2023-01-11T05:01:53.361Z,6.68
2023-01-11T05:02:55.823Z,6.78
2023-01-11T05:03:58.947Z,6.59
2023-01-11T05:05:01.474Z,6.33
2023-01-11T05:06:04.816Z,6.52
2023-01-11T05:07:07.738Z,6.63
2023-01-11T05:08:09.247Z,6.55
2023-01-11T05:09:14.011Z,6.42
2023-01-11T05:10:16.023Z,6.47
2023-01-11T05:11:18.884Z,6.61
2023-01-11T05:12:20.365Z,6.79
2023-01-11T05:13:41.430Z,6.89
2023-01-11T05:14:43.961Z,6.99
2023-01-11T05:15:45.529Z,7.17
2023-01-11T05:16:48.053Z,7.22
2023-01-11T05:17:49.591Z,6.94
2023-01-11T05:18:54.023Z,6.83
2023-01-11T05:19:57.012Z,7.13
2023-01-11T05:20:59.473Z,7.21
2023-01-11T05:22:01.055Z,7.21
2023-01-11T05:23:03.541Z,7.22
2023-01-11T05:24:07.237Z,7.31
2023-01-11T05:25:10.145Z,7.43
2023-01-11T05:26:14.608Z,7.62
2023-01-11T05:27:17.051Z,7.67
2023-01-11T05:28:19.977Z,7.22
2023-01-11T05:29:22.707Z,7.30
2023-01-11T05:30:24.302Z,7.41
2023-01-11T05:31:27.414Z,7.23
2023-01-11T05:32:29.483Z,7.26
2023-01-11T05:33:32.108Z,7.29
2023-01-11T05:34:34.808Z,7.33
2023-01-11T05:35:37.622Z,7.27
2023-01-11T05:36:40.291Z,7.28
2023-01-11T05:37:41.809Z,7.41
2023-01-11T05:38:46.616Z,7.16
2023-01-11T05:39:48.162Z,6.81
2023-01-11T05:40:55.160Z,6.80
2023-01-11T05:41:56.705Z,6.97
2023-01-11T05:42:59.148Z,7.00
2023-01-11T05:44:19.667Z,7.22
2023-01-11T05:45:30.046Z,7.27
2023-01-11T05:46:33.526Z,7.38
2023-01-11T05:47:35.010Z,7.38
2023-01-11T05:48:37.466Z,7.27
2023-01-11T05:49:39.892Z,7.34
2023-01-11T05:50:43.796Z,7.27
2023-01-11T05:51:45.358Z,7.25
2023-01-11T05:52:47.853Z,7.20
2023-01-11T05:53:49.413Z,7.05
2023-01-11T05:54:51.860Z,7.14
2023-01-11T05:55:53.797Z,7.10
2023-01-11T05:56:57.622Z,7.06
2023-01-11T05:57:59.254Z,6.82
2023-01-11T05:59:03.840Z,6.93
2023-01-11T06:00:06.465Z,7.12
2023-01-11T06:01:09.244Z,6.98
2023-01-11T06:02:15.458Z,6.89
2023-01-11T06:03:17.222Z,7.04
2023-01-11T06:04:19.731Z,7.13
2023-01-11T06:05:21.254Z,7.18
2023-01-11T06:06:25.098Z,6.95
2023-01-11T06:07:27.624Z,7.13
2023-01-11T06:08:29.127Z,7.14
2023-01-11T06:09:31.587Z,7.06
2023-01-11T06:10:33.968Z,7.13
2023-01-11T06:11:36.587Z,7.16
2023-01-11T06:12:38.157Z,6.97
2023-01-11T06:13:40.673Z,6.87
2023-01-11T06:14:42.178Z,6.96
2023-01-11T06:15:44.992Z,7.03
2023-01-11T06:16:47.511Z,6.95
2023-01-11T06:17:49.049Z,6.84
2023-01-11T06:18:53.492Z,7.03
2023-01-11T06:19:55.020Z,7.06
2023-01-11T06:20:58.136Z,7.12
2023-01-11T06:22:04.905Z,7.13
2023-01-11T06:23:06.493Z,7.02
2023-01-11T06:24:12.267Z,7.15
2023-01-11T06:25:14.359Z,7.05
2023-01-11T06:26:22.044Z,7.11
2023-01-11T06:27:23.593Z,7.28
2023-01-11T06:28:26.065Z,7.31
2023-01-11T06:29:27.624Z,7.35
2023-01-11T06:30:30.331Z,7.29
2023-01-11T06:31:31.871Z,7.23
2023-01-11T06:32:34.366Z,7.18
2023-01-11T06:33:36.451Z,6.96
2023-01-11T06:34:38.970Z,6.95
2023-01-11T06:35:41.837Z,6.87
2023-01-11T06:36:44.251Z,6.85
2023-01-11T06:37:47.662Z,6.93
2023-01-11T06:38:50.140Z,6.83
2023-01-11T06:39:51.620Z,6.90
2023-01-11T06:40:55.464Z,7.06
2023-01-11T06:41:56.973Z,7.13
2023-01-11T06:42:59.635Z,7.22
2023-01-11T06:44:01.128Z,7.20
2023-01-11T06:45:03.575Z,7.32
2023-01-11T06:46:07.984Z,7.39
2023-01-11T06:47:10.476Z,7.17
2023-01-11T06:48:12.013Z,7.06
2023-01-11T06:49:14.709Z,7.08
2023-01-11T06:50:16.768Z,7.08
2023-01-11T06:51:19.241Z,6.93
2023-01-11T06:52:20.804Z,6.94
2023-01-11T06:53:28.416Z,7.06
2023-01-11T06:54:31.459Z,6.98
2023-01-11T06:55:32.976Z,6.75
2023-01-11T06:56:35.762Z,6.97
2023-01-11T06:57:37.337Z,6.99
2023-01-11T06:58:39.826Z,7.11
2023-01-11T06:59:43.246Z,7.05
2023-01-11T07:00:46.105Z,7.22
2023-01-11T07:01:47.797Z,7.14
2023-01-11T07:02:50.696Z,7.24
2023-01-11T07:03:52.206Z,7.33
2023-01-11T07:04:54.840Z,7.06
2023-01-11T07:05:58.475Z,6.98
2023-01-11T07:06:59.942Z,6.86
2023-01-11T07:08:02.716Z,6.88
2023-01-11T07:09:06.545Z,7.06
2023-01-11T07:10:12.115Z,7.17
2023-01-11T07:11:14.548Z,7.25
2023-01-11T07:12:16.073Z,7.20
2023-01-11T07:13:20.523Z,7.19
2023-01-11T07:14:22.129Z,7.31
2023-01-11T07:15:24.638Z,7.39
2023-01-11T07:16:27.125Z,7.35
2023-01-11T07:17:28.803Z,7.22
2023-01-11T07:18:31.795Z,7.19
2023-01-11T07:19:33.310Z,7.21
2023-01-11T07:20:38.398Z,7.12
2023-01-11T07:21:39.878Z,7.21
2023-01-11T07:22:42.625Z,7.24
2023-01-11T07:23:45.997Z,7.26
2023-01-11T07:24:50.080Z,7.32
2023-01-11T07:25:51.802Z,7.40
2023-01-11T07:26:56.280Z,7.32
2023-01-11T07:27:58.893Z,7.23
2023-01-11T07:29:01.382Z,7.15
2023-01-11T07:30:03.069Z,7.25
2023-01-11T07:31:05.733Z,7.22
2023-01-11T07:32:10.711Z,7.18
2023-01-11T07:33:13.405Z,7.36
2023-01-11T07:34:15.479Z,7.35
2023-01-11T07:35:19.039Z,7.45
2023-01-11T07:36:21.548Z,7.44
2023-01-11T07:37:28.605Z,7.38
2023-01-11T07:38:31.934Z,7.53
2023-01-11T07:39:43.313Z,7.45
2023-01-11T07:40:48.185Z,7.27
2023-01-11T07:42:08.659Z,7.35
2023-01-11T07:43:15.296Z,7.37
2023-01-11T07:44:17.639Z,7.33
2023-01-11T07:45:20.520Z,7.42
2023-01-11T07:46:23.287Z,7.40
2023-01-11T07:47:24.851Z,7.43
2023-01-11T07:48:27.829Z,7.55
2023-01-11T07:49:29.662Z,7.39
2023-01-11T07:50:32.605Z,7.60
2023-01-11T07:51:35.076Z,7.69
2023-01-11T07:52:38.667Z,7.64
2023-01-11T07:53:41.195Z,7.68
2023-01-11T07:54:42.738Z,7.70
2023-01-11T07:55:45.525Z,7.74
2023-01-11T07:56:49.341Z,7.72
2023-01-11T07:57:51.280Z,7.86
2023-01-11T07:58:53.711Z,7.84
2023-01-11T07:59:55.244Z,7.82
2023-01-11T08:01:00.227Z,7.96
2023-01-11T08:02:01.723Z,7.93
2023-01-11T08:03:04.711Z,7.91
2023-01-11T08:04:08.432Z,7.85
2023-01-11T08:05:10.281Z,7.88
2023-01-11T08:06:14.460Z,7.83
2023-01-11T08:07:18.095Z,7.85
2023-01-11T08:08:21.037Z,7.89
2023-01-11T08:09:22.548Z,8.07
2023-01-11T08:10:25.656Z,7.93
2023-01-11T08:12:00.687Z,7.93
2023-01-11T08:13:22.389Z,8.07
2023-01-11T08:14:41.963Z,7.97
2023-01-11T08:15:46.752Z,8.07
2023-01-11T08:16:48.319Z,8.08
2023-01-11T08:17:51.303Z,8.04
2023-01-11T08:18:52.910Z,8.18
2023-01-11T08:19:56.190Z,8.31
2023-01-11T08:20:58.762Z,8.21
2023-01-11T08:22:00.325Z,8.04
2023-01-11T08:23:04.893Z,8.14
2023-01-11T08:24:06.961Z,8.20
2023-01-11T08:25:11.176Z,8.14
2023-01-11T08:26:17.091Z,8.04
2023-01-11T08:27:19.529Z,8.00
2023-01-11T08:28:23.318Z,8.04
2023-01-11T08:29:25.645Z,8.10
2023-01-11T08:30:28.127Z,8.23
2023-01-11T08:31:31.051Z,8.29
2023-01-11T08:32:32.615Z,8.19
2023-01-11T08:33:35.039Z,8.33
2023-01-11T08:34:36.793Z,8.26
2023-01-11T08:35:40.396Z,8.27
2023-01-11T08:36:41.952Z,8.23
2023-01-11T08:37:44.562Z,8.32
2023-01-11T08:38:46.031Z,8.37
2023-01-11T08:39:50.674Z,8.40
2023-01-11T08:40:53.110Z,8.23
2023-01-11T08:41:54.734Z,8.33
2023-01-11T08:42:57.686Z,8.44
2023-01-11T08:44:00.669Z,8.56
2023-01-11T08:45:03.288Z,8.63
2023-01-11T08:46:05.091Z,8.47
2023-01-11T08:47:08.009Z,8.27
2023-01-11T08:48:12.173Z,8.17
2023-01-11T08:49:14.742Z,8.20
2023-01-11T08:50:18.896Z,8.29
2023-01-11T08:51:23.012Z,8.31
2023-01-11T08:52:37.512Z,8.34
2023-01-11T08:53:39.159Z,8.36
2023-01-11T08:54:42.590Z,8.23
2023-01-11T08:55:49.151Z,8.22
2023-01-11T08:56:50.741Z,8.32
2023-01-11T08:57:53.270Z,8.22
2023-01-11T08:58:56.057Z,8.20
2023-01-11T09:00:00.192Z,8.18
2023-01-11T09:01:09.009Z,8.30
2023-01-11T09:02:13.511Z,8.29
2023-01-11T09:03:15.239Z,8.26
2023-01-11T09:04:24.581Z,8.32
2023-01-11T09:05:27.496Z,8.29
2023-01-11T09:06:29.186Z,8.43
2023-01-11T09:07:31.782Z,8.46
2023-01-11T09:08:33.346Z,8.55
2023-01-11T09:09:36.054Z,8.43
2023-01-11T09:10:38.063Z,8.49
2023-01-11T09:11:56.937Z,8.64
2023-01-11T09:13:00.633Z,8.36
2023-01-11T09:14:02.144Z,8.42
2023-01-11T09:15:07.090Z,8.42
2023-01-11T09:16:08.618Z,8.62
2023-01-11T09:17:11.158Z,8.75
2023-01-11T09:18:12.711Z,8.85
2023-01-11T09:19:15.448Z,8.78
2023-01-11T09:20:19.444Z,8.81
2023-01-11T09:21:22.501Z,8.83
2023-01-11T09:22:25.105Z,8.74
2023-01-11T09:23:28.661Z,8.86
2023-01-11T09:24:32.075Z,9.13
2023-01-11T09:25:38.176Z,9.24
2023-01-11T09:26:41.771Z,8.90
2023-01-11T09:27:45.189Z,9.26
2023-01-11T09:28:46.708Z,9.42
2023-01-11T09:29:49.246Z,9.39
2023-01-11T09:30:53.076Z,9.47
2023-01-11T09:31:55.559Z,9.44
2023-01-11T09:32:58.227Z,9.43
2023-01-11T09:33:59.753Z,9.27
2023-01-11T09:35:03.618Z,9.39
2023-01-11T09:36:06.124Z,9.33
2023-01-11T09:37:08.632Z,9.30
2023-01-11T09:38:11.151Z,9.48
2023-01-11T09:39:16.989Z,9.44
2023-01-11T09:40:22.695Z,9.40
2023-01-11T09:41:46.497Z,9.30
2023-01-11T09:42:52.710Z,9.45
2023-01-11T09:44:02.232Z,9.48
2023-01-11T09:45:14.233Z,9.61
2023-01-11T09:46:19.873Z,9.57
2023-01-11T09:47:33.723Z,9.37
2023-01-11T09:48:43.775Z,9.60
2023-01-11T09:49:54.530Z,9.66
2023-01-11T09:50:57.736Z,9.65
2023-01-11T09:52:11.409Z,9.39
2023-01-11T09:53:19.560Z,9.18
2023-01-11T09:54:27.470Z,9.24
2023-01-11T09:55:34.679Z,9.45
2023-01-11T09:56:44.097Z,9.59
2023-01-11T09:58:03.920Z,9.56
2023-01-11T09:59:17.739Z,9.54
2023-01-11T10:00:28.854Z,9.72
2023-01-11T10:01:39.585Z,9.81
2023-01-11T10:02:49.339Z,9.84
2023-01-11T10:04:12.896Z,9.83
2023-01-11T10:05:51.431Z,9.86
2023-01-11T10:07:12.915Z,9.57
2023-01-11T10:18:28.494Z,9.71
2023-01-11T10:18:37.854Z,10.00
2023-01-11T10:18:40.395Z,9.66
2023-01-11T10:19:37.730Z,10.26
2023-01-11T10:20:47.503Z,10.12
2023-01-11T10:21:55.649Z,10.26
2023-01-11T10:23:04.963Z,10.37
2023-01-11T10:24:14.771Z,10.40
2023-01-11T10:25:24.798Z,10.46
2023-01-11T10:26:36.004Z,10.41
2023-01-11T10:27:40.484Z,10.36
2023-01-11T10:29:07.365Z,10.33
2023-01-11T10:30:33.513Z,10.34
2023-01-11T10:31:49.271Z,10.44
2023-01-11T10:33:10.136Z,10.40
2023-01-11T10:34:38.644Z,10.48
2023-01-11T10:36:12.963Z,10.55
2023-01-11T10:37:44.714Z,10.65
2023-01-11T10:39:14.485Z,10.79
2023-01-11T10:40:42.911Z,10.19
2023-01-11T10:42:04.134Z,10.21
2023-01-11T10:43:20.684Z,9.95
2023-01-11T10:44:38.450Z,10.14
2023-01-11T10:45:47.942Z,9.98
2023-01-11T10:47:00.113Z,9.81
2023-01-11T10:48:17.692Z,9.75
2023-01-11T10:49:38.846Z,9.67
2023-01-11T10:50:57.383Z,9.72
2023-01-11T10:52:07.965Z,9.86
2023-01-11T10:53:21.232Z,9.71
2023-01-11T10:54:36.063Z,9.83
2023-01-11T10:55:51.671Z,9.85
2023-01-11T10:57:09.330Z,9.96
2023-01-11T10:58:25.197Z,9.83
2023-01-11T10:59:50.376Z,9.85
2023-01-11T11:01:09.115Z,9.97
2023-01-11T11:02:30.805Z,9.84
2023-01-11T11:04:09.883Z,9.85
2023-01-11T11:05:29.253Z,9.79
2023-01-11T11:06:40.718Z,9.81
2023-01-11T11:07:55.210Z,10.02
2023-01-11T11:09:06.692Z,10.18
2023-01-11T11:10:21.852Z,10.28
2023-01-11T11:11:32.979Z,10.47
2023-01-11T11:12:38.936Z,10.45
2023-01-11T11:13:50.756Z,10.52
2023-01-11T11:15:04.287Z,10.32
2023-01-11T11:16:19.809Z,10.29
2023-01-11T11:17:26.702Z,10.56
2023-01-11T11:18:29.347Z,10.42
2023-01-11T11:19:33.193Z,10.40
2023-01-11T11:20:35.798Z,10.47
2023-01-11T11:21:40.325Z,10.65
2023-01-11T11:22:44.925Z,10.80
2023-01-11T11:23:54.418Z,10.69
2023-01-11T11:25:02.634Z,10.85
2023-01-11T11:26:06.737Z,10.91
2023-01-11T11:27:19.083Z,10.80
2023-01-11T11:28:28.937Z,10.87
2023-01-11T11:29:31.537Z,10.55
2023-01-11T11:30:38.161Z,10.43
2023-01-11T11:31:43.821Z,10.58
2023-01-11T11:32:55.397Z,10.77
2023-01-11T11:33:58.553Z,10.62
2023-01-11T11:35:02.790Z,10.70
2023-01-11T11:36:08.890Z,10.57
2023-01-11T11:37:21.609Z,10.47
2023-01-11T11:38:26.228Z,10.70
2023-01-11T11:39:30.240Z,10.32
2023-01-11T11:40:35.546Z,10.18
2023-01-11T11:41:48.043Z,10.45
2023-01-11T11:42:50.605Z,10.43
2023-01-11T11:43:53.383Z,10.45
2023-01-11T11:45:14.700Z,10.28
2023-01-11T11:46:25.275Z,10.50
2023-01-11T11:47:26.887Z,10.43
2023-01-11T11:48:31.432Z,10.43
2023-01-11T11:49:34.173Z,10.33
2023-01-11T11:50:46.149Z,10.24
2023-01-11T11:51:48.445Z,10.17
2023-01-11T11:52:55.521Z,10.34
2023-01-11T11:53:58.405Z,10.32
2023-01-11T11:55:00.037Z,10.37
2023-01-11T11:56:08.779Z,10.27
2023-01-11T11:57:18.311Z,10.17
2023-01-11T11:58:23.252Z,9.91
2023-01-11T11:59:30.020Z,10.05
2023-01-11T12:00:40.066Z,10.23
2023-01-11T12:01:47.187Z,10.25
2023-01-11T12:02:52.003Z,10.11
2023-01-11T12:03:57.502Z,10.03
2023-01-11T12:05:05.341Z,10.14
2023-01-11T12:06:09.322Z,10.17
2023-01-11T12:07:17.715Z,9.86
2023-01-11T12:08:21.611Z,9.83
2023-01-11T12:09:30.872Z,10.03
2023-01-11T12:10:33.733Z,10.01
2023-01-11T12:11:38.699Z,10.14
2023-01-11T12:12:51.920Z,10.04
2023-01-11T12:14:01.848Z,10.15
2023-01-11T12:15:19.278Z,10.15
2023-01-11T12:16:23.799Z,10.18
2023-01-11T12:17:26.863Z,10.29
2023-01-11T12:18:33.358Z,10.45
2023-01-11T12:19:41.267Z,10.47
2023-01-11T12:20:44.778Z,10.42
2023-01-11T12:21:48.613Z,10.41
2023-01-11T12:22:53.270Z,10.26
2023-01-11T12:24:10.914Z,10.22
2023-01-11T12:25:22.556Z,10.37
2023-01-11T12:26:29.132Z,10.28
2023-01-11T12:27:42.686Z,10.33
2023-01-11T12:29:23.955Z,10.30
2023-01-11T12:30:30.256Z,9.92
2023-01-11T12:31:40.289Z,10.20
2023-01-11T12:33:08.698Z,10.21
2023-01-11T12:34:28.588Z,10.24
2023-01-11T12:35:36.904Z,10.25
2023-01-11T12:36:49.087Z,10.41
2023-01-11T12:38:09.592Z,10.42
2023-01-11T12:39:20.628Z,10.38
2023-01-11T12:40:31.482Z,10.49
2023-01-11T12:41:58.723Z,10.52
2023-01-11T12:43:16.467Z,10.65
2023-01-11T12:44:31.349Z,10.82
2023-01-11T12:45:40.966Z,10.80
2023-01-11T12:46:58.880Z,10.40
2023-01-11T12:48:18.986Z,10.26
2023-01-11T12:49:37.863Z,10.60
2023-01-11T12:50:53.686Z,10.75
2023-01-11T12:52:32.036Z,10.48
2023-01-11T12:53:47.836Z,10.52
2023-01-11T12:55:05.261Z,10.36
2023-01-11T12:56:27.328Z,10.44
2023-01-11T12:57:37.816Z,10.59
2023-01-11T12:58:46.596Z,10.54
2023-01-11T13:00:09.481Z,10.77
2023-01-11T13:01:31.335Z,10.71
2023-01-11T13:02:53.877Z,10.60
2023-01-11T13:04:25.073Z,10.76
2023-01-11T13:05:28.893Z,10.80
2023-01-11T13:06:36.405Z,10.71
2023-01-11T13:07:50.699Z,10.54
2023-01-11T13:09:00.854Z,10.80
2023-01-11T13:10:15.448Z,10.97
2023-01-11T13:11:36.648Z,10.83
2023-01-11T13:12:47.027Z,10.97
2023-01-11T13:13:57.375Z,10.86
2023-01-11T13:15:25.126Z,10.30
2023-01-11T13:16:35.724Z,10.25
2023-01-11T13:17:46.017Z,10.33
2023-01-11T13:18:59.043Z,9.99
2023-01-11T13:20:15.285Z,10.26
2023-01-11T13:21:30.020Z,10.21
2023-01-11T13:22:37.513Z,10.29
2023-01-11T13:23:47.406Z,10.38
2023-01-11T13:24:52.368Z,9.97
2023-01-11T13:25:55.472Z,9.97
2023-01-11T13:27:01.926Z,10.18
2023-01-11T13:28:24.388Z,10.03
2023-01-11T13:29:31.055Z,10.04
2023-01-11T13:30:34.127Z,10.08
2023-01-11T13:31:37.880Z,10.16
2023-01-11T13:32:43.178Z,9.93
2023-01-11T13:33:54.703Z,10.20
2023-01-11T13:35:04.638Z,10.33
2023-01-11T13:36:22.624Z,10.38
2023-01-11T13:37:30.577Z,10.22
2023-01-11T13:38:44.550Z,10.09
2023-01-11T13:39:53.106Z,10.11
2023-01-11T13:41:00.868Z,10.27
2023-01-11T13:42:10.703Z,10.02
2023-01-11T13:43:19.943Z,10.11
2023-01-11T13:44:25.945Z,10.06
2023-01-11T13:45:33.279Z,9.87
2023-01-11T13:47:01.156Z,10.05
2023-01-11T13:48:15.129Z,10.26
2023-01-11T13:49:37.276Z,10.24
2023-01-11T13:50:46.584Z,9.96
2023-01-11T13:51:54.155Z,10.01
2023-01-11T13:53:06.748Z,9.84
2023-01-11T13:54:14.959Z,10.00
2023-01-11T13:55:26.867Z,9.93
2023-01-11T13:56:34.190Z,10.07
2023-01-11T13:57:44.605Z,10.21
2023-01-11T13:58:52.597Z,10.26
2023-01-11T14:00:04.872Z,10.22
2023-01-11T14:01:12.040Z,10.40
2023-01-11T14:02:21.950Z,9.98
2023-01-11T14:03:31.252Z,10.15
2023-01-11T14:04:48.414Z,10.05
2023-01-11T14:06:03.961Z,10.08
2023-01-11T14:07:18.753Z,9.86
2023-01-11T14:08:36.586Z,9.68
2023-01-11T14:10:02.931Z,9.78
2023-01-11T14:11:17.400Z,9.98
2023-01-11T14:12:33.104Z,10.10
2023-01-11T14:14:06.328Z,10.39
2023-01-11T14:15:22.555Z,10.53
2023-01-11T14:16:34.372Z,10.60
2023-01-11T14:17:56.424Z,10.22
2023-01-11T14:19:06.749Z,10.23
2023-01-11T14:20:21.388Z,10.22
2023-01-11T14:21:31.298Z,10.20
2023-01-11T14:22:42.244Z,10.19
2023-01-11T14:23:49.951Z,10.32
2023-01-11T14:24:58.266Z,10.29
2023-01-11T14:26:26.542Z,10.33
2023-01-11T14:27:49.222Z,10.15
2023-01-11T14:29:04.237Z,10.18
2023-01-11T14:30:36.054Z,10.09
2023-01-11T14:31:52.607Z,9.95
2023-01-11T14:33:26.309Z,10.18
2023-01-11T14:34:48.592Z,10.16
2023-01-11T14:36:14.968Z,10.16
2023-01-11T14:37:45.488Z,10.13
2023-01-11T14:39:14.740Z,10.14
2023-01-11T14:40:31.285Z,10.28
2023-01-11T14:41:57.127Z,10.21
2023-01-11T14:43:25.362Z,10.28
2023-01-11T14:44:43.724Z,10.37
2023-01-11T14:46:00.337Z,10.52
2023-01-11T14:47:11.922Z,10.59
2023-01-11T14:48:36.949Z,10.31
2023-01-11T14:49:55.962Z,10.40
2023-01-11T14:51:14.036Z,10.30
2023-01-11T14:52:34.549Z,10.39
2023-01-11T14:53:46.558Z,10.18
2023-01-11T14:54:51.565Z,9.95
2023-01-11T14:55:54.043Z,9.98
2023-01-11T14:56:57.783Z,9.94
2023-01-11T14:58:03.471Z,10.06
2023-01-11T14:59:08.413Z,9.88
2023-01-11T15:00:50.794Z,10.08